createdAt,value
2017-10-26T00:01:53.992Z,90.38
2017-10-26T00:04:21.596Z,90.49
2017-10-26T00:06:49.193Z,90.55
2017-10-26T00:09:16.837Z,90.39
2017-10-26T00:11:44.439Z,90.40
2017-10-26T00:14:12.040Z,90.34
2017-10-26T00:16:39.768Z,90.41
2017-10-26T00:19:07.376Z,90.35
2017-10-26T00:21:35.036Z,90.33
2017-10-26T00:24:02.695Z,90.42
2017-10-26T00:26:30.302Z,90.39
2017-10-26T00:28:57.975Z,90.44
2017-10-26T00:31:26.551Z,90.42
2017-10-26T00:33:54.212Z,90.43
2017-10-26T00:36:21.853Z,90.58
2017-10-26T00:38:49.569Z,90.54
2017-10-26T00:41:17.230Z,90.40
2017-10-26T00:43:44.901Z,90.47
2017-10-26T00:46:12.619Z,90.44
2017-10-26T00:48:40.291Z,90.61
2017-10-26T00:51:07.962Z,90.63
2017-10-26T00:53:35.623Z,90.44
2017-10-26T00:56:03.256Z,90.44
2017-10-26T00:58:31.022Z,90.31
2017-10-26T01:00:58.688Z,90.29
2017-10-26T01:03:26.549Z,90.05
2017-10-26T01:05:54.147Z,89.83
2017-10-26T01:08:21.856Z,90.02
2017-10-26T01:10:49.521Z,90.20
2017-10-26T01:13:17.124Z,90.21
2017-10-26T01:15:44.804Z,90.22
2017-10-26T01:18:12.471Z,90.12
2017-10-26T01:20:40.156Z,89.91
2017-10-26T01:23:08.149Z,89.95
2017-10-26T01:25:35.771Z,89.87
2017-10-26T01:28:03.463Z,90.25
2017-10-26T01:30:31.322Z,90.24
2017-10-26T01:32:59.080Z,90.41
2017-10-26T01:35:26.725Z,90.34
2017-10-26T01:37:54.415Z,90.32
2017-10-26T01:40:23.088Z,90.69
2017-10-26T01:42:50.715Z,90.72
2017-10-26T01:45:18.400Z,90.64
2017-10-26T01:47:46.132Z,90.66
2017-10-26T01:50:14.136Z,90.73
2017-10-26T01:52:42.056Z,90.53
2017-10-26T01:55:09.847Z,90.40
2017-10-26T01:57:37.573Z,90.40
2017-10-26T02:00:05.289Z,90.37
2017-10-26T02:02:33.715Z,90.48
2017-10-26T02:05:01.340Z,90.30
2017-10-26T02:07:29.007Z,90.16
2017-10-26T02:09:56.676Z,90.16
2017-10-26T02:12:24.307Z,90.29
2017-10-26T02:14:52.048Z,90.26
2017-10-26T02:17:19.659Z,90.24
2017-10-26T02:19:47.332Z,90.32
2017-10-26T02:22:15.952Z,90.30
2017-10-26T02:24:43.559Z,90.13
2017-10-26T02:27:11.621Z,90.21
2017-10-26T02:29:51.131Z,90.18
2017-10-26T02:32:18.743Z,90.32
2017-10-26T02:34:46.352Z,90.79
2017-10-26T02:37:14.796Z,90.46
2017-10-26T02:39:42.411Z,90.12
2017-10-26T02:42:10.012Z,90.08
2017-10-26T02:44:37.726Z,89.94
2017-10-26T02:47:05.350Z,89.94
2017-10-26T02:49:32.960Z,89.97
2017-10-26T02:52:00.628Z,89.93
2017-10-26T02:54:28.232Z,89.90
2017-10-26T02:56:55.937Z,90.48
2017-10-26T02:59:23.664Z,90.79
2017-10-26T03:01:51.424Z,91.19
2017-10-26T03:04:19.204Z,91.43
2017-10-26T03:06:47.047Z,92.04
2017-10-26T03:09:14.652Z,92.30
2017-10-26T03:11:42.274Z,91.66
2017-10-26T03:14:09.994Z,91.48
2017-10-26T03:16:37.599Z,91.70
2017-10-26T03:19:05.208Z,92.08
2017-10-26T03:21:32.916Z,92.07
2017-10-26T03:24:00.524Z,91.82
2017-10-26T03:26:28.251Z,91.96
2017-10-26T03:28:55.965Z,91.39
2017-10-26T03:31:23.568Z,91.76
2017-10-26T03:33:51.336Z,91.63
2017-10-26T03:36:19.048Z,91.66
2017-10-26T03:38:46.655Z,91.44
2017-10-26T03:41:14.359Z,91.47
2017-10-26T03:43:42.140Z,91.63
2017-10-26T03:46:09.746Z,91.87
2017-10-26T03:48:37.520Z,91.60
2017-10-26T03:51:05.209Z,91.45
2017-10-26T03:53:32.811Z,91.03
2017-10-26T03:56:00.493Z,90.90
2017-10-26T03:58:28.221Z,90.98
2017-10-26T04:00:55.832Z,91.07
2017-10-26T04:03:23.441Z,90.95
2017-10-26T04:05:51.100Z,90.95
2017-10-26T04:08:19.435Z,91.03
2017-10-26T04:10:47.082Z,90.80
2017-10-26T04:13:17.595Z,90.64
2017-10-26T04:15:45.208Z,90.65
2017-10-26T04:18:12.829Z,90.60
2017-10-26T04:20:40.501Z,90.91
2017-10-26T04:23:08.200Z,90.89
2017-10-26T04:25:35.866Z,90.78
2017-10-26T04:28:03.587Z,90.63
2017-10-26T04:30:31.328Z,90.16
2017-10-26T04:32:59.010Z,90.08
2017-10-26T04:35:26.769Z,90.24
2017-10-26T04:37:54.379Z,90.21
2017-10-26T04:40:22.043Z,90.35
2017-10-26T04:42:49.703Z,90.22
2017-10-26T04:45:17.322Z,90.19
2017-10-26T04:47:44.940Z,90.24
2017-10-26T04:50:12.844Z,90.49
2017-10-26T04:52:40.450Z,90.76
2017-10-26T04:55:08.055Z,90.83
2017-10-26T04:57:35.816Z,91.33
2017-10-26T05:00:03.435Z,91.34
2017-10-26T05:02:31.104Z,91.43
2017-10-26T05:04:58.751Z,91.54
2017-10-26T05:07:26.379Z,91.39
2017-10-26T05:09:53.984Z,91.29
2017-10-26T05:12:33.640Z,91.37
2017-10-26T05:15:01.372Z,91.53
2017-10-26T05:17:29.047Z,91.71
2017-10-26T05:19:56.700Z,91.95
2017-10-26T05:22:24.373Z,92.16
2017-10-26T05:24:51.983Z,92.26
2017-10-26T05:27:19.652Z,92.33
2017-10-26T05:29:47.259Z,92.26
2017-10-26T05:32:14.986Z,92.38
2017-10-26T05:34:42.707Z,92.46
2017-10-26T05:37:10.316Z,92.42
2017-10-26T05:39:37.987Z,92.29
2017-10-26T05:42:05.724Z,92.49
2017-10-26T05:44:33.390Z,92.56
2017-10-26T05:47:01.008Z,92.69
2017-10-26T05:49:28.659Z,92.44
2017-10-26T05:51:56.325Z,91.89
2017-10-26T05:54:23.928Z,92.03
2017-10-26T05:56:51.705Z,91.60
2017-10-26T05:59:19.424Z,91.54
2017-10-26T06:01:47.056Z,91.18
2017-10-26T06:04:14.721Z,90.49
2017-10-26T06:06:42.335Z,89.30
2017-10-26T06:09:10.065Z,90.21
2017-10-26T06:11:37.807Z,90.15
2017-10-26T06:14:05.491Z,90.02
2017-10-26T06:16:33.355Z,89.80
2017-10-26T06:19:01.083Z,89.02
2017-10-26T06:21:28.693Z,88.48
2017-10-26T06:23:56.328Z,87.87
2017-10-26T06:26:24.041Z,88.22
2017-10-26T06:28:51.675Z,86.81
2017-10-26T06:31:19.284Z,86.47
2017-10-26T06:33:46.978Z,87.08
2017-10-26T06:36:14.589Z,87.34
2017-10-26T06:38:42.202Z,85.89
2017-10-26T06:41:09.925Z,84.90
2017-10-26T06:43:37.588Z,85.42
2017-10-26T06:46:05.239Z,80.97
2017-10-26T06:48:32.956Z,78.94
2017-10-26T06:51:00.676Z,78.77
2017-10-26T06:53:28.337Z,79.35
2017-10-26T06:55:56.004Z,79.84
2017-10-26T06:58:23.688Z,75.47
2017-10-26T07:00:52.060Z,77.89
2017-10-26T07:03:19.808Z,77.71
2017-10-26T07:05:47.412Z,75.82
2017-10-26T07:08:15.076Z,73.76
2017-10-26T07:10:42.838Z,75.88
2017-10-26T07:13:10.505Z,75.24
2017-10-26T07:15:38.176Z,75.99
2017-10-26T07:18:05.897Z,75.68
2017-10-26T07:20:33.536Z,74.20
2017-10-26T07:23:01.209Z,73.11
2017-10-26T07:25:29.379Z,72.48
2017-10-26T07:27:56.993Z,72.65
2017-10-26T07:30:24.599Z,72.94
2017-10-26T07:32:52.389Z,73.00
2017-10-26T07:35:20.054Z,71.30
2017-10-26T07:37:47.667Z,71.89
2017-10-26T07:40:15.391Z,70.48
2017-10-26T07:42:43.115Z,74.21
2017-10-26T07:45:10.723Z,73.73
2017-10-26T07:47:38.446Z,74.23
2017-10-26T07:50:06.116Z,75.23
2017-10-26T07:52:33.729Z,75.46
2017-10-26T07:55:01.392Z,74.38
2017-10-26T07:57:29.085Z,74.53
2017-10-26T07:59:56.704Z,73.99
2017-10-26T08:02:24.399Z,73.35
2017-10-26T08:04:52.072Z,73.72
2017-10-26T08:07:19.691Z,74.93
2017-10-26T08:09:47.425Z,72.08
2017-10-26T08:12:15.107Z,72.02
2017-10-26T08:17:09.708Z,71.18
2017-10-26T08:19:37.318Z,71.21
2017-10-26T08:22:05.168Z,71.23
2017-10-26T08:24:33.056Z,72.30
2017-10-26T08:27:00.669Z,73.57
2017-10-26T08:29:28.384Z,72.81
2017-10-26T08:31:56.143Z,72.24
2017-10-26T08:34:23.768Z,71.69
2017-10-26T08:36:51.375Z,70.87
2017-10-26T08:39:19.093Z,70.16
2017-10-26T08:41:46.702Z,70.28
2017-10-26T08:44:14.307Z,69.94
2017-10-26T08:46:43.023Z,69.10
2017-10-26T08:49:14.048Z,69.54
2017-10-26T08:51:42.367Z,68.73
2017-10-26T08:54:10.193Z,68.90
2017-10-26T08:56:38.049Z,68.62
2017-10-26T08:59:05.667Z,69.16
2017-10-26T09:01:33.421Z,69.00
2017-10-26T09:04:01.023Z,66.85
2017-10-26T09:06:28.728Z,66.36
2017-10-26T09:08:56.497Z,66.36
2017-10-26T09:11:24.269Z,65.35
2017-10-26T09:13:52.299Z,65.46
2017-10-26T09:16:20.099Z,65.23
2017-10-26T09:18:47.882Z,64.19
2017-10-26T09:21:15.591Z,63.70
2017-10-26T09:23:43.439Z,63.67
2017-10-26T09:26:11.060Z,63.07
2017-10-26T09:28:38.696Z,62.41
2017-10-26T09:31:06.520Z,62.51
2017-10-26T09:33:37.692Z,61.44
2017-10-26T09:36:05.383Z,61.60
2017-10-26T09:38:34.259Z,61.90
2017-10-26T09:41:01.903Z,63.21
2017-10-26T09:43:30.321Z,62.82
2017-10-26T09:45:58.035Z,62.36
2017-10-26T09:48:25.750Z,62.42
2017-10-26T09:50:53.542Z,63.55
2017-10-26T09:53:21.263Z,63.24
2017-10-26T09:55:49.000Z,63.50
2017-10-26T09:58:16.684Z,62.98
2017-10-26T10:00:44.460Z,64.94
2017-10-26T10:03:12.179Z,63.24
2017-10-26T10:05:42.691Z,63.43
2017-10-26T10:08:10.432Z,63.26
2017-10-26T10:10:38.083Z,63.70
2017-10-26T10:13:05.698Z,63.25
2017-10-26T10:15:33.584Z,63.40
2017-10-26T10:18:01.235Z,64.41
2017-10-26T10:20:28.914Z,62.97
2017-10-26T10:22:56.624Z,63.54
2017-10-26T10:25:24.303Z,62.68
2017-10-26T10:27:52.961Z,61.26
2017-10-26T10:30:20.783Z,60.67
2017-10-26T10:32:49.483Z,60.57
2017-10-26T10:35:17.100Z,59.36
2017-10-26T10:37:44.928Z,58.63
2017-10-26T10:40:12.620Z,56.94
2017-10-26T10:42:40.414Z,55.76
2017-10-26T10:45:08.101Z,55.16
2017-10-26T10:47:35.730Z,54.11
2017-10-26T10:50:03.748Z,53.67
2017-10-26T10:52:31.423Z,53.72
2017-10-26T10:54:59.127Z,53.74
2017-10-26T10:57:27.037Z,52.31
2017-10-26T11:00:00.327Z,51.60
2017-10-26T11:02:28.540Z,50.77
2017-10-26T11:04:56.214Z,50.10
2017-10-26T11:07:24.011Z,48.82
2017-10-26T11:09:51.954Z,48.37
2017-10-26T11:12:19.571Z,46.30
2017-10-26T11:14:47.333Z,45.82
2017-10-26T11:17:14.963Z,46.92
2017-10-26T11:19:42.635Z,48.10
2017-10-26T11:22:10.368Z,49.33
2017-10-26T11:24:38.156Z,51.06
2017-10-26T11:27:05.863Z,52.10
2017-10-26T11:29:33.567Z,50.81
2017-10-26T11:32:01.227Z,50.55
2017-10-26T11:34:28.925Z,50.63
2017-10-26T11:36:56.655Z,49.44
2017-10-26T11:39:24.681Z,48.05
2017-10-26T11:41:52.392Z,47.18
2017-10-26T11:44:20.353Z,45.17
2017-10-26T11:46:48.240Z,46.57
2017-10-26T11:49:15.886Z,49.94
2017-10-26T11:51:43.621Z,51.35
2017-10-26T11:54:11.336Z,52.76
2017-10-26T11:56:39.027Z,54.79
2017-10-26T11:59:06.808Z,55.82
2017-10-26T12:01:34.468Z,56.75
2017-10-26T12:04:02.192Z,58.06
2017-10-26T12:06:29.983Z,58.99
2017-10-26T12:08:57.622Z,59.65
2017-10-26T12:11:25.243Z,60.13
2017-10-26T12:13:52.959Z,61.11
2017-10-26T12:16:20.796Z,60.71
2017-10-26T12:18:48.503Z,61.74
2017-10-26T12:21:16.392Z,61.76
2017-10-26T12:23:44.167Z,62.90
2017-10-26T12:26:11.788Z,63.71
2017-10-26T12:28:39.518Z,62.72
2017-10-26T12:31:07.312Z,63.38
2017-10-26T12:33:35.088Z,63.23
2017-10-26T12:36:02.783Z,63.57
2017-10-26T12:38:30.531Z,63.24
2017-10-26T12:40:58.360Z,64.25
2017-10-26T12:43:26.044Z,63.90
2017-10-26T12:45:53.675Z,63.50
2017-10-26T12:48:21.455Z,63.87
2017-10-26T12:50:49.175Z,63.15
2017-10-26T12:53:17.043Z,63.66
2017-10-26T12:55:44.835Z,63.60
2017-10-26T12:58:12.571Z,63.54
2017-10-26T13:00:40.270Z,63.53
2017-10-26T13:03:07.978Z,63.84
2017-10-26T13:05:35.723Z,64.31
2017-10-26T13:08:03.384Z,65.18
2017-10-26T13:10:31.091Z,64.60
2017-10-26T13:12:58.751Z,64.47
2017-10-26T13:15:26.499Z,64.14
2017-10-26T13:17:55.158Z,63.99
2017-10-26T13:20:22.854Z,64.54
2017-10-26T13:22:50.539Z,64.15
2017-10-26T13:25:18.183Z,64.39
2017-10-26T13:27:46.036Z,64.83
2017-10-26T13:30:13.639Z,64.73
2017-10-26T13:32:41.244Z,64.90
2017-10-26T13:35:08.912Z,65.49
2017-10-26T13:37:36.604Z,63.43
2017-10-26T13:40:04.308Z,64.10
2017-10-26T13:42:32.044Z,64.81
2017-10-26T13:44:59.730Z,64.58
2017-10-26T13:47:27.471Z,64.90
2017-10-26T13:49:55.205Z,64.87
2017-10-26T13:52:22.975Z,66.04
2017-10-26T13:54:50.685Z,65.63
2017-10-26T13:57:18.563Z,66.34
2017-10-26T13:59:46.211Z,66.42
2017-10-26T14:02:13.900Z,66.57
2017-10-26T14:04:41.587Z,66.95
2017-10-26T14:07:09.264Z,67.18
2017-10-26T14:09:36.959Z,67.00
2017-10-26T14:12:04.620Z,66.80
2017-10-26T14:14:32.279Z,67.49
2017-10-26T14:16:59.915Z,67.73
2017-10-26T14:19:27.720Z,68.10
2017-10-26T14:21:55.353Z,68.11
2017-10-26T14:24:22.971Z,68.39
2017-10-26T14:26:50.639Z,68.94
2017-10-26T14:29:18.308Z,68.03
2017-10-26T14:31:46.159Z,68.56
2017-10-26T14:34:13.882Z,69.17
2017-10-26T14:36:41.491Z,69.02
2017-10-26T14:39:09.269Z,69.44
2017-10-26T14:41:37.065Z,69.83
2017-10-26T14:44:04.676Z,70.38
2017-10-26T14:46:32.590Z,70.65
2017-10-26T14:49:00.307Z,70.95
2017-10-26T14:51:27.924Z,71.46
2017-10-26T14:53:55.649Z,71.83
2017-10-26T14:56:23.306Z,72.45
2017-10-26T14:58:51.014Z,73.25
2017-10-26T15:01:18.778Z,75.80
2017-10-26T15:03:46.500Z,76.86
2017-10-26T15:06:14.214Z,76.43
2017-10-26T15:08:41.839Z,76.50
2017-10-26T15:11:09.654Z,77.22
2017-10-26T15:13:37.411Z,78.55
2017-10-26T15:16:05.059Z,78.78
2017-10-26T15:18:32.717Z,79.22
2017-10-26T15:21:00.416Z,79.82
2017-10-26T15:23:28.083Z,80.30
2017-10-26T15:25:55.769Z,81.04
2017-10-26T15:28:23.391Z,81.71
2017-10-26T15:30:51.031Z,81.78
2017-10-26T15:33:18.687Z,82.40
2017-10-26T15:35:46.363Z,82.93
2017-10-26T15:38:13.975Z,83.55
2017-10-26T15:40:41.735Z,83.85
2017-10-26T15:43:09.496Z,84.10
2017-10-26T15:45:37.163Z,84.21
2017-10-26T15:48:04.831Z,84.00
2017-10-26T15:50:32.515Z,84.29
2017-10-26T15:53:00.128Z,84.37
2017-10-26T15:55:27.816Z,84.47
2017-10-26T15:57:55.435Z,84.70
2017-10-26T16:00:23.047Z,85.08
2017-10-26T16:02:50.756Z,85.26
2017-10-26T16:05:18.402Z,85.31
2017-10-26T16:07:46.119Z,85.20
2017-10-26T16:10:13.816Z,85.28
2017-10-26T16:12:41.433Z,85.45
2017-10-26T16:15:09.151Z,85.60
2017-10-26T16:17:36.857Z,85.90
2017-10-26T16:20:04.536Z,85.88
2017-10-26T16:22:32.162Z,85.85
2017-10-26T16:25:00.073Z,86.21
2017-10-26T16:27:33.281Z,86.45
2017-10-26T16:30:01.047Z,86.74
2017-10-26T16:32:28.847Z,86.88
2017-10-26T16:34:56.521Z,87.08
2017-10-26T16:37:24.216Z,87.40
2017-10-26T16:39:51.921Z,87.41
2017-10-26T16:42:19.599Z,87.61
2017-10-26T16:44:47.255Z,87.65
2017-10-26T16:47:14.867Z,87.66
2017-10-26T16:49:42.510Z,87.58
2017-10-26T16:52:10.229Z,87.33
2017-10-26T16:54:37.987Z,87.20
2017-10-26T16:57:05.655Z,87.24
2017-10-26T16:59:33.379Z,87.12
2017-10-26T17:02:01.140Z,87.01
2017-10-26T17:04:28.944Z,87.06
2017-10-26T17:06:56.815Z,87.26
2017-10-26T17:09:24.472Z,87.46
2017-10-26T17:11:52.079Z,87.65
2017-10-26T17:14:19.791Z,87.82
2017-10-26T17:16:47.400Z,87.96
2017-10-26T17:19:15.031Z,88.15
2017-10-26T17:21:42.718Z,88.35
2017-10-26T17:24:10.340Z,88.23
2017-10-26T17:26:37.946Z,88.18
2017-10-26T17:29:05.673Z,88.29
2017-10-26T17:31:33.291Z,88.40
2017-10-26T17:34:00.924Z,88.48
2017-10-26T17:36:28.587Z,88.46
2017-10-26T17:38:56.196Z,88.59
2017-10-26T17:41:23.853Z,88.72
2017-10-26T17:43:51.519Z,88.79
2017-10-26T17:46:19.135Z,88.77
2017-10-26T17:48:46.815Z,88.76
2017-10-26T17:51:14.671Z,88.77
2017-10-26T17:53:42.283Z,88.68
2017-10-26T17:56:09.962Z,88.90
2017-10-26T17:58:37.680Z,88.94
2017-10-26T18:01:05.527Z,88.95
2017-10-26T18:03:33.190Z,88.81
2017-10-26T18:06:00.944Z,88.69
2017-10-26T18:08:28.552Z,88.65
2017-10-26T18:10:56.288Z,88.64
2017-10-26T18:13:24.012Z,88.65
2017-10-26T18:15:51.685Z,88.87
2017-10-26T18:18:19.303Z,88.80
2017-10-26T18:20:47.056Z,88.82
2017-10-26T18:23:14.794Z,88.85
2017-10-26T18:25:42.507Z,88.95
2017-10-26T18:28:10.181Z,89.02
2017-10-26T18:30:37.851Z,89.25
2017-10-26T18:33:05.530Z,89.39
2017-10-26T18:35:33.367Z,89.50
2017-10-26T18:38:01.080Z,89.57
2017-10-26T18:40:28.777Z,89.82
2017-10-26T18:42:56.439Z,89.74
2017-10-26T18:45:24.107Z,89.83
2017-10-26T18:47:51.708Z,89.76
2017-10-26T18:50:19.372Z,89.63
2017-10-26T18:52:46.988Z,89.42
2017-10-26T18:55:14.620Z,89.36
2017-10-26T18:57:42.338Z,89.19
2017-10-26T19:00:09.972Z,89.10
2017-10-26T19:02:37.636Z,89.08
2017-10-26T19:05:05.356Z,89.22
2017-10-26T19:07:33.063Z,89.32
2017-10-26T19:10:00.659Z,89.38
2017-10-26T19:12:28.327Z,89.60
2017-10-26T19:14:55.988Z,89.81
2017-10-26T19:17:23.602Z,89.65
2017-10-26T19:19:51.263Z,90.03
2017-10-26T19:22:18.979Z,90.16
2017-10-26T19:24:46.640Z,90.09
2017-10-26T19:27:14.290Z,90.28
2017-10-26T19:29:41.916Z,90.74
2017-10-26T19:32:09.524Z,90.93
2017-10-26T19:34:37.274Z,90.85
2017-10-26T19:37:04.892Z,90.65
2017-10-26T19:39:32.627Z,90.58
2017-10-26T19:42:00.376Z,90.26
2017-10-26T19:44:28.048Z,90.22
2017-10-26T19:46:55.808Z,89.91
2017-10-26T19:49:23.574Z,89.60
2017-10-26T19:51:51.283Z,89.43
2017-10-26T19:54:18.927Z,89.46
2017-10-26T19:56:46.655Z,89.29
2017-10-26T19:59:14.255Z,89.41
2017-10-26T20:01:41.995Z,89.14
2017-10-26T20:04:09.747Z,89.18
2017-10-26T20:06:37.621Z,89.17
2017-10-26T20:09:05.372Z,88.93
2017-10-26T20:11:33.035Z,88.90
2017-10-26T20:14:00.643Z,88.74
2017-10-26T20:16:28.393Z,88.73
2017-10-26T20:18:56.184Z,88.63
2017-10-26T20:21:23.820Z,88.73
2017-10-26T20:23:51.710Z,88.62
2017-10-26T20:26:19.419Z,88.71
2017-10-26T20:28:47.080Z,88.78
2017-10-26T20:31:14.856Z,88.80
2017-10-26T20:33:42.699Z,88.84
2017-10-26T20:36:10.328Z,88.90
2017-10-26T20:38:37.980Z,88.81
2017-10-26T20:41:05.644Z,88.51
2017-10-26T20:43:33.363Z,88.33
2017-10-26T20:46:01.135Z,88.15
2017-10-26T20:48:28.887Z,88.07
2017-10-26T20:51:02.159Z,88.10
2017-10-26T20:56:41.831Z,88.57
2017-10-26T20:59:15.037Z,88.69
2017-10-26T21:01:48.227Z,89.17
2017-10-26T21:04:21.475Z,89.70
2017-10-26T21:06:49.119Z,90.15
2017-10-26T21:09:22.554Z,90.37
2017-10-26T21:11:55.775Z,90.67
2017-10-26T21:14:28.455Z,90.60
2017-10-26T21:16:56.159Z,90.48
2017-10-26T21:19:23.968Z,90.40
2017-10-26T21:21:51.638Z,90.30
2017-10-26T21:24:19.274Z,89.56
2017-10-26T21:26:46.974Z,88.99
2017-10-26T21:29:14.789Z,88.68
2017-10-26T21:31:42.436Z,88.51
2017-10-26T21:34:10.156Z,88.60
2017-10-26T21:36:37.819Z,88.73
2017-10-26T21:39:05.526Z,89.09
2017-10-26T21:41:33.175Z,89.17
2017-10-26T21:44:01.725Z,89.26
2017-10-26T21:46:29.392Z,88.95
2017-10-26T21:48:57.098Z,88.80
2017-10-26T21:51:24.799Z,88.69
2017-10-26T21:53:52.429Z,88.91
2017-10-26T21:56:20.277Z,89.06
2017-10-26T21:58:48.076Z,89.27
2017-10-26T22:01:15.712Z,89.76
2017-10-26T22:03:43.432Z,89.85
2017-10-26T22:06:11.255Z,90.19
2017-10-26T22:08:38.903Z,90.31
2017-10-26T22:11:06.587Z,90.62
2017-10-26T22:13:34.284Z,90.71
2017-10-26T22:16:01.907Z,91.05
2017-10-26T22:18:29.559Z,90.93
2017-10-26T22:20:57.256Z,90.99
2017-10-26T22:23:24.875Z,91.07
2017-10-26T22:25:52.599Z,91.01
2017-10-26T22:28:20.346Z,90.93
2017-10-26T22:30:47.963Z,90.97
2017-10-26T22:33:15.628Z,91.21
2017-10-26T22:35:43.391Z,91.13
2017-10-26T22:38:11.115Z,91.39
2017-10-26T22:40:38.735Z,91.32
2017-10-26T22:43:06.683Z,91.32
2017-10-26T22:45:34.453Z,91.28
2017-10-26T22:48:02.103Z,91.13
2017-10-26T22:50:29.881Z,91.06
2017-10-26T22:52:57.533Z,90.64
2017-10-26T22:55:25.267Z,90.35
2017-10-26T22:57:52.997Z,90.25
2017-10-26T23:00:20.622Z,90.25
2017-10-26T23:02:48.390Z,90.26
2017-10-26T23:05:16.128Z,90.39
2017-10-26T23:07:43.871Z,90.34
2017-10-26T23:10:11.478Z,90.30
2017-10-26T23:12:39.195Z,90.24
2017-10-26T23:15:06.791Z,90.20
2017-10-26T23:17:34.539Z,90.24
2017-10-26T23:20:02.287Z,90.37
2017-10-26T23:22:29.995Z,90.38
2017-10-26T23:24:57.711Z,90.39
2017-10-26T23:27:25.520Z,90.41
2017-10-26T23:29:53.244Z,90.53
2017-10-26T23:32:20.951Z,90.58
2017-10-26T23:34:48.654Z,90.54
2017-10-26T23:37:16.328Z,90.59
2017-10-26T23:39:44.092Z,90.83
2017-10-26T23:42:11.916Z,90.78
2017-10-26T23:44:39.556Z,90.91
2017-10-26T23:47:07.225Z,91.00
2017-10-26T23:49:35.016Z,91.08
2017-10-26T23:52:02.704Z,91.03
2017-10-26T23:54:30.312Z,90.84
2017-10-26T23:56:57.959Z,90.80
2017-10-26T23:59:25.635Z,90.68
